sensor_id;sensor_type;location;lat;lon;timestamp;P1;durP1;ratioP1;P2;durP2;ratioP2
77123;SDS011;66079;47.646;19.130;2023-06-01T00:00:21;6.90;;;4.30;;
77123;SDS011;66079;47.646;19.130;2023-06-01T00:03:23;10.27;;;4.80;;
77123;SDS011;66079;47.646;19.130;2023-06-01T00:06:27;6.47;;;4.80;;
77123;SDS011;66079;47.646;19.130;2023-06-01T00:09:33;6.93;;;4.18;;
77123;SDS011;66079;47.646;19.130;2023-06-01T00:12:36;5.57;;;4.93;;
77123;SDS011;66079;47.646;19.130;2023-06-01T00:15:39;5.75;;;4.85;;
77123;SDS011;66079;47.646;19.130;2023-06-01T00:18:41;6.18;;;4.53;;
77123;SDS011;66079;47.646;19.130;2023-06-01T00:21:45;7.17;;;4.60;;
77123;SDS011;66079;47.646;19.130;2023-06-01T00:24:47;6.90;;;4.85;;
77123;SDS011;66079;47.646;19.130;2023-06-01T00:27:50;9.27;;;4.55;;
77123;SDS011;66079;47.646;19.130;2023-06-01T00:30:53;8.30;;;5.18;;
77123;SDS011;66079;47.646;19.130;2023-06-01T00:33:56;7.40;;;4.65;;
77123;SDS011;66079;47.646;19.130;2023-06-01T00:36:58;6.97;;;4.57;;
77123;SDS011;66079;47.646;19.130;2023-06-01T00:40:01;6.35;;;4.40;;
77123;SDS011;66079;47.646;19.130;2023-06-01T00:43:03;7.00;;;4.65;;
77123;SDS011;66079;47.646;19.130;2023-06-01T00:46:06;8.15;;;4.65;;
77123;SDS011;66079;47.646;19.130;2023-06-01T00:49:10;7.97;;;4.60;;
77123;SDS011;66079;47.646;19.130;2023-06-01T00:52:13;6.30;;;4.43;;
77123;SDS011;66079;47.646;19.130;2023-06-01T00:55:16;6.68;;;4.13;;
77123;SDS011;66079;47.646;19.130;2023-06-01T00:58:21;7.68;;;4.57;;
77123;SDS011;66079;47.646;19.130;2023-06-01T01:01:23;7.35;;;4.65;;
77123;SDS011;66079;47.646;19.130;2023-06-01T01:04:26;8.30;;;4.85;;
77123;SDS011;66079;47.646;19.130;2023-06-01T01:07:32;7.53;;;4.63;;
77123;SDS011;66079;47.646;19.130;2023-06-01T01:17:21;7.43;;;5.10;;
77123;SDS011;66079;47.646;19.130;2023-06-01T01:20:36;8.25;;;4.88;;
77123;SDS011;66079;47.646;19.130;2023-06-01T01:30:46;10.68;;;5.40;;
77123;SDS011;66079;47.646;19.130;2023-06-01T01:33:53;9.88;;;6.03;;
77123;SDS011;66079;47.646;19.130;2023-06-01T01:36:58;9.75;;;6.20;;
77123;SDS011;66079;47.646;19.130;2023-06-01T01:40:01;8.47;;;5.67;;
77123;SDS011;66079;47.646;19.130;2023-06-01T01:43:04;9.63;;;5.75;;
77123;SDS011;66079;47.646;19.130;2023-06-01T01:46:11;8.90;;;5.97;;
77123;SDS011;66079;47.646;19.130;2023-06-01T01:55:36;9.67;;;6.07;;
77123;SDS011;66079;47.646;19.130;2023-06-01T01:58:39;8.93;;;5.65;;
77123;SDS011;66079;47.646;19.130;2023-06-01T02:01:42;10.27;;;5.60;;
77123;SDS011;66079;47.646;19.130;2023-06-01T02:04:47;7.88;;;5.82;;
77123;SDS011;66079;47.646;19.130;2023-06-01T02:07:50;8.93;;;5.90;;
77123;SDS011;66079;47.646;19.130;2023-06-01T02:10:53;9.93;;;5.57;;
77123;SDS011;66079;47.646;19.130;2023-06-01T02:13:55;7.78;;;5.28;;
77123;SDS011;66079;47.646;19.130;2023-06-01T02:16:58;8.90;;;5.60;;
77123;SDS011;66079;47.646;19.130;2023-06-01T02:20:02;8.80;;;5.22;;
77123;SDS011;66079;47.646;19.130;2023-06-01T02:23:06;9.48;;;5.35;;
77123;SDS011;66079;47.646;19.130;2023-06-01T02:26:09;5.97;;;4.90;;
77123;SDS011;66079;47.646;19.130;2023-06-01T02:29:12;8.70;;;5.50;;
77123;SDS011;66079;47.646;19.130;2023-06-01T02:32:15;10.85;;;6.07;;
77123;SDS011;66079;47.646;19.130;2023-06-01T02:35:17;8.73;;;5.90;;
77123;SDS011;66079;47.646;19.130;2023-06-01T02:38:20;8.20;;;5.53;;
77123;SDS011;66079;47.646;19.130;2023-06-01T02:41:22;10.10;;;5.70;;
77123;SDS011;66079;47.646;19.130;2023-06-01T02:44:25;10.20;;;5.65;;
77123;SDS011;66079;47.646;19.130;2023-06-01T02:47:28;8.85;;;5.30;;
77123;SDS011;66079;47.646;19.130;2023-06-01T02:50:30;8.30;;;5.60;;
77123;SDS011;66079;47.646;19.130;2023-06-01T02:53:33;8.38;;;5.32;;
77123;SDS011;66079;47.646;19.130;2023-06-01T02:56:37;7.97;;;5.60;;
77123;SDS011;66079;47.646;19.130;2023-06-01T02:59:48;7.32;;;5.20;;
77123;SDS011;66079;47.646;19.130;2023-06-01T03:02:51;10.55;;;6.15;;
77123;SDS011;66079;47.646;19.130;2023-06-01T03:05:55;10.15;;;5.50;;
77123;SDS011;66079;47.646;19.130;2023-06-01T03:09:31;8.23;;;5.40;;
77123;SDS011;66079;47.646;19.130;2023-06-01T03:12:42;7.43;;;5.40;;
77123;SDS011;66079;47.646;19.130;2023-06-01T03:15:45;11.15;;;5.57;;
77123;SDS011;66079;47.646;19.130;2023-06-01T03:18:47;9.07;;;5.68;;
77123;SDS011;66079;47.646;19.130;2023-06-01T03:21:50;8.88;;;5.38;;
77123;SDS011;66079;47.646;19.130;2023-06-01T03:24:55;10.40;;;5.90;;
77123;SDS011;66079;47.646;19.130;2023-06-01T03:28:05;10.67;;;5.83;;
77123;SDS011;66079;47.646;19.130;2023-06-01T03:31:07;10.45;;;5.75;;
77123;SDS011;66079;47.646;19.130;2023-06-01T03:34:13;8.68;;;5.38;;
77123;SDS011;66079;47.646;19.130;2023-06-01T03:37:16;8.02;;;6.00;;
77123;SDS011;66079;47.646;19.130;2023-06-01T03:40:19;8.15;;;5.47;;
77123;SDS011;66079;47.646;19.130;2023-06-01T03:43:23;10.20;;;5.40;;
77123;SDS011;66079;47.646;19.130;2023-06-01T03:46:25;8.02;;;5.38;;
77123;SDS011;66079;47.646;19.130;2023-06-01T03:49:28;7.68;;;5.47;;
77123;SDS011;66079;47.646;19.130;2023-06-01T03:52:31;16.15;;;6.03;;
77123;SDS011;66079;47.646;19.130;2023-06-01T03:55:33;10.77;;;5.78;;
77123;SDS011;66079;47.646;19.130;2023-06-01T03:58:41;7.80;;;5.70;;
77123;SDS011;66079;47.646;19.130;2023-06-01T04:01:45;9.07;;;4.72;;
77123;SDS011;66079;47.646;19.130;2023-06-01T04:04:51;8.30;;;5.38;;
77123;SDS011;66079;47.646;19.130;2023-06-01T04:07:54;14.63;;;5.13;;
77123;SDS011;66079;47.646;19.130;2023-06-01T04:10:57;10.65;;;5.30;;
77123;SDS011;66079;47.646;19.130;2023-06-01T04:14:00;10.33;;;5.40;;
77123;SDS011;66079;47.646;19.130;2023-06-01T04:17:03;8.95;;;4.88;;
77123;SDS011;66079;47.646;19.130;2023-06-01T04:20:10;8.60;;;4.75;;
77123;SDS011;66079;47.646;19.130;2023-06-01T04:23:15;8.25;;;4.50;;
77123;SDS011;66079;47.646;19.130;2023-06-01T04:26:18;7.55;;;4.75;;
77123;SDS011;66079;47.646;19.130;2023-06-01T04:29:20;7.10;;;4.27;;
77123;SDS011;66079;47.646;19.130;2023-06-01T04:32:23;7.53;;;4.38;;
77123;SDS011;66079;47.646;19.130;2023-06-01T04:35:27;10.25;;;4.10;;
77123;SDS011;66079;47.646;19.130;2023-06-01T04:38:30;7.60;;;4.32;;
77123;SDS011;66079;47.646;19.130;2023-06-01T04:41:34;6.00;;;3.92;;
77123;SDS011;66079;47.646;19.130;2023-06-01T04:44:37;6.53;;;4.20;;
77123;SDS011;66079;47.646;19.130;2023-06-01T04:47:41;9.82;;;4.30;;
77123;SDS011;66079;47.646;19.130;2023-06-01T04:51:02;11.23;;;4.03;;
77123;SDS011;66079;47.646;19.130;2023-06-01T04:54:06;6.65;;;3.58;;
77123;SDS011;66079;47.646;19.130;2023-06-01T04:57:09;9.68;;;3.40;;
77123;SDS011;66079;47.646;19.130;2023-06-01T05:00:13;4.90;;;3.10;;
77123;SDS011;66079;47.646;19.130;2023-06-01T05:03:20;6.82;;;3.40;;
77123;SDS011;66079;47.646;19.130;2023-06-01T05:06:23;9.02;;;3.70;;
77123;SDS011;66079;47.646;19.130;2023-06-01T05:09:27;7.70;;;3.63;;
77123;SDS011;66079;47.646;19.130;2023-06-01T05:12:30;10.60;;;4.03;;
77123;SDS011;66079;47.646;19.130;2023-06-01T05:15:33;11.07;;;4.60;;
77123;SDS011;66079;47.646;19.130;2023-06-01T05:18:35;10.27;;;3.88;;
77123;SDS011;66079;47.646;19.130;2023-06-01T05:21:38;10.20;;;4.25;;
77123;SDS011;66079;47.646;19.130;2023-06-01T05:24:41;7.90;;;3.80;;
77123;SDS011;66079;47.646;19.130;2023-06-01T05:27:44;6.13;;;3.88;;
77123;SDS011;66079;47.646;19.130;2023-06-01T05:30:46;8.27;;;3.83;;
77123;SDS011;66079;47.646;19.130;2023-06-01T05:33:50;11.15;;;4.30;;
77123;SDS011;66079;47.646;19.130;2023-06-01T05:36:54;5.63;;;3.65;;
77123;SDS011;66079;47.646;19.130;2023-06-01T05:39:57;12.20;;;4.28;;
77123;SDS011;66079;47.646;19.130;2023-06-01T05:43:00;9.90;;;4.30;;
77123;SDS011;66079;47.646;19.130;2023-06-01T05:46:05;8.23;;;4.03;;
77123;SDS011;66079;47.646;19.130;2023-06-01T05:49:09;8.25;;;4.00;;
77123;SDS011;66079;47.646;19.130;2023-06-01T05:52:11;6.07;;;3.50;;
77123;SDS011;66079;47.646;19.130;2023-06-01T05:55:16;8.05;;;4.35;;
77123;SDS011;66079;47.646;19.130;2023-06-01T05:58:19;9.88;;;3.88;;
77123;SDS011;66079;47.646;19.130;2023-06-01T06:01:22;7.40;;;3.70;;
77123;SDS011;66079;47.646;19.130;2023-06-01T06:04:25;8.18;;;3.70;;
77123;SDS011;66079;47.646;19.130;2023-06-01T06:07:28;11.27;;;4.00;;
77123;SDS011;66079;47.646;19.130;2023-06-01T06:10:30;9.45;;;4.40;;
77123;SDS011;66079;47.646;19.130;2023-06-01T06:13:33;7.78;;;3.75;;
77123;SDS011;66079;47.646;19.130;2023-06-01T06:16:36;10.77;;;3.57;;
77123;SDS011;66079;47.646;19.130;2023-06-01T06:19:38;7.28;;;3.50;;
77123;SDS011;66079;47.646;19.130;2023-06-01T06:22:41;10.68;;;3.75;;
77123;SDS011;66079;47.646;19.130;2023-06-01T06:25:45;9.38;;;3.88;;
77123;SDS011;66079;47.646;19.130;2023-06-01T06:28:48;9.02;;;3.50;;
77123;SDS011;66079;47.646;19.130;2023-06-01T06:31:50;8.67;;;3.30;;
77123;SDS011;66079;47.646;19.130;2023-06-01T06:34:53;9.18;;;2.90;;
77123;SDS011;66079;47.646;19.130;2023-06-01T06:37:58;6.60;;;3.25;;
77123;SDS011;66079;47.646;19.130;2023-06-01T06:41:02;7.80;;;3.38;;
77123;SDS011;66079;47.646;19.130;2023-06-01T06:44:07;10.40;;;3.30;;
77123;SDS011;66079;47.646;19.130;2023-06-01T06:47:10;5.50;;;3.43;;
77123;SDS011;66079;47.646;19.130;2023-06-01T06:50:17;10.38;;;3.58;;
77123;SDS011;66079;47.646;19.130;2023-06-01T06:53:21;5.63;;;3.28;;
77123;SDS011;66079;47.646;19.130;2023-06-01T06:56:24;7.80;;;3.00;;
77123;SDS011;66079;47.646;19.130;2023-06-01T06:59:27;4.72;;;2.90;;
77123;SDS011;66079;47.646;19.130;2023-06-01T07:02:30;7.40;;;3.00;;
77123;SDS011;66079;47.646;19.130;2023-06-01T07:05:33;6.40;;;3.10;;
77123;SDS011;66079;47.646;19.130;2023-06-01T07:08:36;7.05;;;2.65;;
77123;SDS011;66079;47.646;19.130;2023-06-01T07:11:41;8.02;;;2.75;;
77123;SDS011;66079;47.646;19.130;2023-06-01T07:14:45;5.90;;;2.90;;
77123;SDS011;66079;47.646;19.130;2023-06-01T07:17:47;5.10;;;2.60;;
77123;SDS011;66079;47.646;19.130;2023-06-01T07:20:50;6.63;;;3.00;;
77123;SDS011;66079;47.646;19.130;2023-06-01T07:23:53;8.20;;;2.78;;
77123;SDS011;66079;47.646;19.130;2023-06-01T07:26:56;6.25;;;2.67;;
77123;SDS011;66079;47.646;19.130;2023-06-01T07:29:59;11.32;;;2.95;;
77123;SDS011;66079;47.646;19.130;2023-06-01T07:33:02;6.20;;;2.90;;
77123;SDS011;66079;47.646;19.130;2023-06-01T07:36:05;7.55;;;2.70;;
77123;SDS011;66079;47.646;19.130;2023-06-01T07:39:08;5.53;;;2.60;;
77123;SDS011;66079;47.646;19.130;2023-06-01T07:42:12;5.45;;;2.50;;
77123;SDS011;66079;47.646;19.130;2023-06-01T07:45:15;6.90;;;2.63;;
77123;SDS011;66079;47.646;19.130;2023-06-01T07:48:19;6.20;;;2.60;;
77123;SDS011;66079;47.646;19.130;2023-06-01T07:51:22;6.13;;;2.50;;
77123;SDS011;66079;47.646;19.130;2023-06-01T07:54:25;7.35;;;2.90;;
77123;SDS011;66079;47.646;19.130;2023-06-01T07:57:27;8.35;;;2.45;;
77123;SDS011;66079;47.646;19.130;2023-06-01T08:00:30;3.25;;;2.40;;
77123;SDS011;66079;47.646;19.130;2023-06-01T08:03:33;5.90;;;2.70;;
77123;SDS011;66079;47.646;19.130;2023-06-01T08:06:36;5.40;;;2.80;;
77123;SDS011;66079;47.646;19.130;2023-06-01T08:09:40;6.47;;;2.60;;
77123;SDS011;66079;47.646;19.130;2023-06-01T08:12:44;7.55;;;2.92;;
77123;SDS011;66079;47.646;19.130;2023-06-01T08:15:47;7.63;;;2.67;;
77123;SDS011;66079;47.646;19.130;2023-06-01T08:18:49;5.30;;;2.80;;
77123;SDS011;66079;47.646;19.130;2023-06-01T08:21:53;12.27;;;2.80;;
77123;SDS011;66079;47.646;19.130;2023-06-01T08:24:57;8.38;;;2.55;;
77123;SDS011;66079;47.646;19.130;2023-06-01T08:28:00;7.65;;;2.78;;
77123;SDS011;66079;47.646;19.130;2023-06-01T08:31:02;6.80;;;2.88;;
77123;SDS011;66079;47.646;19.130;2023-06-01T08:34:05;6.30;;;2.77;;
77123;SDS011;66079;47.646;19.130;2023-06-01T08:37:09;8.10;;;2.63;;
77123;SDS011;66079;47.646;19.130;2023-06-01T08:40:11;5.00;;;2.45;;
77123;SDS011;66079;47.646;19.130;2023-06-01T08:43:17;6.97;;;3.03;;
77123;SDS011;66079;47.646;19.130;2023-06-01T08:46:21;6.80;;;2.70;;
77123;SDS011;66079;47.646;19.130;2023-06-01T08:49:25;10.03;;;2.70;;
77123;SDS011;66079;47.646;19.130;2023-06-01T08:52:31;5.88;;;2.90;;
77123;SDS011;66079;47.646;19.130;2023-06-01T08:55:36;6.97;;;2.70;;
77123;SDS011;66079;47.646;19.130;2023-06-01T08:58:39;5.72;;;2.60;;
77123;SDS011;66079;47.646;19.130;2023-06-01T09:01:43;5.93;;;3.25;;
77123;SDS011;66079;47.646;19.130;2023-06-01T09:04:48;6.40;;;2.47;;
77123;SDS011;66079;47.646;19.130;2023-06-01T09:07:50;5.43;;;2.88;;
77123;SDS011;66079;47.646;19.130;2023-06-01T09:10:53;8.95;;;2.95;;
77123;SDS011;66079;47.646;19.130;2023-06-01T09:13:57;6.57;;;2.67;;
77123;SDS011;66079;47.646;19.130;2023-06-01T09:17:00;6.25;;;2.70;;
77123;SDS011;66079;47.646;19.130;2023-06-01T09:20:03;10.13;;;2.90;;
77123;SDS011;66079;47.646;19.130;2023-06-01T09:23:07;6.60;;;3.08;;
77123;SDS011;66079;47.646;19.130;2023-06-01T09:26:10;7.95;;;2.50;;
77123;SDS011;66079;47.646;19.130;2023-06-01T09:29:14;4.65;;;3.05;;
77123;SDS011;66079;47.646;19.130;2023-06-01T09:32:19;7.30;;;3.10;;
77123;SDS011;66079;47.646;19.130;2023-06-01T09:35:43;6.40;;;3.23;;
77123;SDS011;66079;47.646;19.130;2023-06-01T09:38:47;6.32;;;3.03;;
77123;SDS011;66079;47.646;19.130;2023-06-01T09:45:20;4.57;;;2.70;;
77123;SDS011;66079;47.646;19.130;2023-06-01T09:48:24;5.05;;;2.95;;
77123;SDS011;66079;47.646;19.130;2023-06-01T09:51:26;6.03;;;3.07;;
77123;SDS011;66079;47.646;19.130;2023-06-01T09:54:37;7.97;;;3.00;;
77123;SDS011;66079;47.646;19.130;2023-06-01T09:57:44;6.57;;;2.97;;
77123;SDS011;66079;47.646;19.130;2023-06-01T10:00:48;7.35;;;3.20;;
77123;SDS011;66079;47.646;19.130;2023-06-01T10:03:53;5.03;;;2.80;;
77123;SDS011;66079;47.646;19.130;2023-06-01T10:06:58;6.03;;;3.00;;
77123;SDS011;66079;47.646;19.130;2023-06-01T10:10:05;7.18;;;3.10;;
77123;SDS011;66079;47.646;19.130;2023-06-01T10:13:09;8.43;;;2.90;;
77123;SDS011;66079;47.646;19.130;2023-06-01T10:16:12;7.22;;;3.22;;
77123;SDS011;66079;47.646;19.130;2023-06-01T10:19:15;5.18;;;3.17;;
77123;SDS011;66079;47.646;19.130;2023-06-01T10:22:20;5.20;;;3.17;;
77123;SDS011;66079;47.646;19.130;2023-06-01T10:25:23;7.97;;;3.20;;
77123;SDS011;66079;47.646;19.130;2023-06-01T10:28:27;6.78;;;3.53;;
77123;SDS011;66079;47.646;19.130;2023-06-01T10:34:42;7.93;;;3.35;;
77123;SDS011;66079;47.646;19.130;2023-06-01T10:41:26;6.57;;;3.60;;
77123;SDS011;66079;47.646;19.130;2023-06-01T10:50:44;7.22;;;3.58;;
77123;SDS011;66079;47.646;19.130;2023-06-01T10:54:24;9.23;;;3.90;;
77123;SDS011;66079;47.646;19.130;2023-06-01T10:57:30;8.70;;;3.42;;
77123;SDS011;66079;47.646;19.130;2023-06-01T11:00:38;4.85;;;3.25;;
77123;SDS011;66079;47.646;19.130;2023-06-01T11:03:42;7.70;;;3.90;;
77123;SDS011;66079;47.646;19.130;2023-06-01T11:06:47;8.75;;;3.75;;
77123;SDS011;66079;47.646;19.130;2023-06-01T11:09:50;5.63;;;3.80;;
77123;SDS011;66079;47.646;19.130;2023-06-01T11:19:24;9.57;;;4.15;;
77123;SDS011;66079;47.646;19.130;2023-06-01T11:22:33;6.97;;;3.63;;
77123;SDS011;66079;47.646;19.130;2023-06-01T11:25:37;5.03;;;3.70;;
77123;SDS011;66079;47.646;19.130;2023-06-01T11:28:42;6.28;;;3.80;;
77123;SDS011;66079;47.646;19.130;2023-06-01T11:31:47;9.18;;;4.30;;
77123;SDS011;66079;47.646;19.130;2023-06-01T11:34:52;6.25;;;3.70;;
77123;SDS011;66079;47.646;19.130;2023-06-01T11:37:56;5.95;;;3.75;;
77123;SDS011;66079;47.646;19.130;2023-06-01T11:41:00;6.60;;;3.60;;
77123;SDS011;66079;47.646;19.130;2023-06-01T11:44:04;5.80;;;4.10;;
77123;SDS011;66079;47.646;19.130;2023-06-01T11:47:08;5.80;;;3.80;;
77123;SDS011;66079;47.646;19.130;2023-06-01T11:50:21;6.90;;;4.18;;
77123;SDS011;66079;47.646;19.130;2023-06-01T11:53:29;6.90;;;3.88;;
77123;SDS011;66079;47.646;19.130;2023-06-01T11:56:36;4.93;;;3.73;;
77123;SDS011;66079;47.646;19.130;2023-06-01T12:03:06;7.53;;;3.83;;
77123;SDS011;66079;47.646;19.130;2023-06-01T12:06:22;5.45;;;3.83;;
77123;SDS011;66079;47.646;19.130;2023-06-01T12:09:27;5.47;;;3.50;;
77123;SDS011;66079;47.646;19.130;2023-06-01T12:12:30;5.07;;;3.60;;
77123;SDS011;66079;47.646;19.130;2023-06-01T12:15:36;6.07;;;3.55;;
77123;SDS011;66079;47.646;19.130;2023-06-01T12:18:39;5.00;;;3.85;;
77123;SDS011;66079;47.646;19.130;2023-06-01T12:21:49;5.32;;;3.97;;
77123;SDS011;66079;47.646;19.130;2023-06-01T12:24:53;5.25;;;4.00;;
77123;SDS011;66079;47.646;19.130;2023-06-01T12:28:03;5.63;;;3.90;;
77123;SDS011;66079;47.646;19.130;2023-06-01T12:31:07;7.43;;;4.50;;
77123;SDS011;66079;47.646;19.130;2023-06-01T12:34:16;5.68;;;3.78;;
77123;SDS011;66079;47.646;19.130;2023-06-01T12:37:20;4.95;;;3.90;;
77123;SDS011;66079;47.646;19.130;2023-06-01T12:40:23;5.97;;;3.95;;
77123;SDS011;66079;47.646;19.130;2023-06-01T12:43:25;8.83;;;4.13;;
77123;SDS011;66079;47.646;19.130;2023-06-01T12:46:29;7.18;;;3.95;;
77123;SDS011;66079;47.646;19.130;2023-06-01T12:49:37;5.22;;;4.00;;
77123;SDS011;66079;47.646;19.130;2023-06-01T12:52:42;5.18;;;4.30;;
77123;SDS011;66079;47.646;19.130;2023-06-01T12:55:46;8.15;;;4.13;;
77123;SDS011;66079;47.646;19.130;2023-06-01T12:58:49;6.90;;;4.57;;
77123;SDS011;66079;47.646;19.130;2023-06-01T13:01:51;8.40;;;4.07;;
77123;SDS011;66079;47.646;19.130;2023-06-01T13:04:55;5.20;;;4.10;;
77123;SDS011;66079;47.646;19.130;2023-06-01T13:08:00;7.95;;;4.13;;
77123;SDS011;66079;47.646;19.130;2023-06-01T13:11:04;5.22;;;3.97;;
77123;SDS011;66079;47.646;19.130;2023-06-01T13:14:07;5.30;;;4.00;;
77123;SDS011;66079;47.646;19.130;2023-06-01T13:17:10;6.65;;;4.13;;
77123;SDS011;66079;47.646;19.130;2023-06-01T13:20:12;5.38;;;4.20;;
77123;SDS011;66079;47.646;19.130;2023-06-01T13:23:18;7.57;;;4.10;;
77123;SDS011;66079;47.646;19.130;2023-06-01T13:26:21;11.50;;;4.35;;
77123;SDS011;66079;47.646;19.130;2023-06-01T13:29:24;6.93;;;4.07;;
77123;SDS011;66079;47.646;19.130;2023-06-01T13:32:28;8.10;;;4.43;;
77123;SDS011;66079;47.646;19.130;2023-06-01T13:35:32;8.55;;;4.50;;
77123;SDS011;66079;47.646;19.130;2023-06-01T13:38:35;6.97;;;4.22;;
77123;SDS011;66079;47.646;19.130;2023-06-01T13:41:39;5.93;;;4.00;;
77123;SDS011;66079;47.646;19.130;2023-06-01T13:44:43;4.67;;;4.10;;
77123;SDS011;66079;47.646;19.130;2023-06-01T13:47:48;4.90;;;3.75;;
77123;SDS011;66079;47.646;19.130;2023-06-01T13:50:52;6.05;;;3.88;;
77123;SDS011;66079;47.646;19.130;2023-06-01T13:53:56;10.48;;;4.20;;
77123;SDS011;66079;47.646;19.130;2023-06-01T13:56:58;5.30;;;3.70;;
77123;SDS011;66079;47.646;19.130;2023-06-01T14:00:01;6.80;;;4.10;;
77123;SDS011;66079;47.646;19.130;2023-06-01T14:03:07;5.15;;;4.07;;
77123;SDS011;66079;47.646;19.130;2023-06-01T14:06:09;6.20;;;4.28;;
77123;SDS011;66079;47.646;19.130;2023-06-01T14:09:12;8.45;;;4.22;;
77123;SDS011;66079;47.646;19.130;2023-06-01T14:12:14;6.15;;;4.03;;
77123;SDS011;66079;47.646;19.130;2023-06-01T14:15:18;5.80;;;3.80;;
77123;SDS011;66079;47.646;19.130;2023-06-01T14:18:21;7.13;;;4.25;;
77123;SDS011;66079;47.646;19.130;2023-06-01T14:21:24;5.20;;;3.88;;
77123;SDS011;66079;47.646;19.130;2023-06-01T14:24:27;6.03;;;4.00;;
77123;SDS011;66079;47.646;19.130;2023-06-01T14:27:30;7.47;;;4.13;;
77123;SDS011;66079;47.646;19.130;2023-06-01T14:30:33;5.97;;;4.10;;
77123;SDS011;66079;47.646;19.130;2023-06-01T14:33:35;6.55;;;4.00;;
77123;SDS011;66079;47.646;19.130;2023-06-01T14:36:40;5.80;;;4.00;;
77123;SDS011;66079;47.646;19.130;2023-06-01T14:39:48;9.00;;;4.15;;
77123;SDS011;66079;47.646;19.130;2023-06-01T14:42:51;6.40;;;4.10;;
77123;SDS011;66079;47.646;19.130;2023-06-01T14:45:54;5.60;;;3.93;;
77123;SDS011;66079;47.646;19.130;2023-06-01T14:48:57;4.50;;;3.83;;
77123;SDS011;66079;47.646;19.130;2023-06-01T14:52:01;6.93;;;4.10;;
77123;SDS011;66079;47.646;19.130;2023-06-01T14:55:04;5.43;;;4.07;;
77123;SDS011;66079;47.646;19.130;2023-06-01T14:58:07;5.47;;;4.30;;
77123;SDS011;66079;47.646;19.130;2023-06-01T15:01:11;5.87;;;3.80;;
77123;SDS011;66079;47.646;19.130;2023-06-01T15:04:13;5.97;;;4.05;;
77123;SDS011;66079;47.646;19.130;2023-06-01T15:07:16;8.63;;;4.50;;
77123;SDS011;66079;47.646;19.130;2023-06-01T15:10:19;4.82;;;3.88;;
77123;SDS011;66079;47.646;19.130;2023-06-01T15:13:21;7.57;;;4.00;;
77123;SDS011;66079;47.646;19.130;2023-06-01T15:16:24;6.43;;;4.00;;
77123;SDS011;66079;47.646;19.130;2023-06-01T15:19:29;8.23;;;4.18;;
77123;SDS011;66079;47.646;19.130;2023-06-01T15:22:31;6.75;;;4.15;;
77123;SDS011;66079;47.646;19.130;2023-06-01T15:25:36;5.15;;;4.20;;
77123;SDS011;66079;47.646;19.130;2023-06-01T15:28:38;7.47;;;4.00;;
77123;SDS011;66079;47.646;19.130;2023-06-01T15:31:41;6.33;;;4.20;;
77123;SDS011;66079;47.646;19.130;2023-06-01T15:34:43;10.52;;;4.82;;
77123;SDS011;66079;47.646;19.130;2023-06-01T15:37:46;5.55;;;4.00;;
77123;SDS011;66079;47.646;19.130;2023-06-01T15:40:48;6.15;;;4.00;;
77123;SDS011;66079;47.646;19.130;2023-06-01T15:43:51;8.07;;;4.50;;
77123;SDS011;66079;47.646;19.130;2023-06-01T15:46:54;5.33;;;4.13;;
77123;SDS011;66079;47.646;19.130;2023-06-01T15:49:57;9.13;;;4.00;;
77123;SDS011;66079;47.646;19.130;2023-06-01T15:52:59;7.32;;;3.80;;
77123;SDS011;66079;47.646;19.130;2023-06-01T15:56:02;5.88;;;4.20;;
77123;SDS011;66079;47.646;19.130;2023-06-01T15:59:05;7.78;;;4.70;;
77123;SDS011;66079;47.646;19.130;2023-06-01T16:02:08;5.50;;;3.80;;
77123;SDS011;66079;47.646;19.130;2023-06-01T16:05:10;5.30;;;4.18;;
77123;SDS011;66079;47.646;19.130;2023-06-01T16:08:13;7.50;;;4.03;;
77123;SDS011;66079;47.646;19.130;2023-06-01T16:11:15;6.07;;;4.32;;
77123;SDS011;66079;47.646;19.130;2023-06-01T16:14:18;6.35;;;3.88;;
77123;SDS011;66079;47.646;19.130;2023-06-01T16:17:20;5.50;;;3.83;;
77123;SDS011;66079;47.646;19.130;2023-06-01T16:20:23;5.00;;;3.65;;
77123;SDS011;66079;47.646;19.130;2023-06-01T16:23:25;5.32;;;4.15;;
77123;SDS011;66079;47.646;19.130;2023-06-01T16:26:28;5.75;;;3.90;;
77123;SDS011;66079;47.646;19.130;2023-06-01T16:29:31;5.28;;;3.95;;
77123;SDS011;66079;47.646;19.130;2023-06-01T16:32:33;6.13;;;4.00;;
77123;SDS011;66079;47.646;19.130;2023-06-01T16:35:37;5.85;;;3.90;;
77123;SDS011;66079;47.646;19.130;2023-06-01T16:38:39;6.20;;;3.90;;
77123;SDS011;66079;47.646;19.130;2023-06-01T16:41:42;5.18;;;3.60;;
77123;SDS011;66079;47.646;19.130;2023-06-01T16:44:44;5.10;;;3.50;;
77123;SDS011;66079;47.646;19.130;2023-06-01T16:47:47;7.17;;;3.80;;
77123;SDS011;66079;47.646;19.130;2023-06-01T16:50:50;5.93;;;3.83;;
77123;SDS011;66079;47.646;19.130;2023-06-01T16:53:52;4.63;;;4.00;;
77123;SDS011;66079;47.646;19.130;2023-06-01T16:56:55;5.43;;;4.15;;
77123;SDS011;66079;47.646;19.130;2023-06-01T16:59:58;6.05;;;3.92;;
77123;SDS011;66079;47.646;19.130;2023-06-01T17:03:00;6.30;;;4.10;;
77123;SDS011;66079;47.646;19.130;2023-06-01T17:06:04;6.35;;;3.90;;
77123;SDS011;66079;47.646;19.130;2023-06-01T17:09:07;6.32;;;3.85;;
77123;SDS011;66079;47.646;19.130;2023-06-01T17:12:10;5.88;;;3.67;;
77123;SDS011;66079;47.646;19.130;2023-06-01T17:15:18;5.65;;;3.63;;
77123;SDS011;66079;47.646;19.130;2023-06-01T17:18:21;8.67;;;3.93;;
77123;SDS011;66079;47.646;19.130;2023-06-01T17:21:24;5.00;;;3.60;;
77123;SDS011;66079;47.646;19.130;2023-06-01T17:24:27;6.57;;;3.45;;
77123;SDS011;66079;47.646;19.130;2023-06-01T17:27:29;5.00;;;3.40;;
77123;SDS011;66079;47.646;19.130;2023-06-01T17:30:32;5.30;;;3.50;;
77123;SDS011;66079;47.646;19.130;2023-06-01T17:33:35;6.73;;;3.60;;
77123;SDS011;66079;47.646;19.130;2023-06-01T17:36:37;7.00;;;3.80;;
77123;SDS011;66079;47.646;19.130;2023-06-01T17:39:40;8.32;;;4.03;;
77123;SDS011;66079;47.646;19.130;2023-06-01T17:42:43;5.18;;;3.97;;
77123;SDS011;66079;47.646;19.130;2023-06-01T17:45:46;6.38;;;4.07;;
77123;SDS011;66079;47.646;19.130;2023-06-01T17:48:49;7.13;;;3.70;;
77123;SDS011;66079;47.646;19.130;2023-06-01T17:51:51;6.88;;;3.95;;
77123;SDS011;66079;47.646;19.130;2023-06-01T17:54:54;7.43;;;4.20;;
77123;SDS011;66079;47.646;19.130;2023-06-01T17:57:57;6.38;;;3.80;;
77123;SDS011;66079;47.646;19.130;2023-06-01T18:00:59;7.47;;;3.85;;
77123;SDS011;66079;47.646;19.130;2023-06-01T18:04:02;8.00;;;3.83;;
77123;SDS011;66079;47.646;19.130;2023-06-01T18:07:05;6.70;;;3.75;;
77123;SDS011;66079;47.646;19.130;2023-06-01T18:10:07;5.75;;;3.85;;
77123;SDS011;66079;47.646;19.130;2023-06-01T18:13:10;4.78;;;3.90;;
77123;SDS011;66079;47.646;19.130;2023-06-01T18:16:13;7.15;;;3.97;;
77123;SDS011;66079;47.646;19.130;2023-06-01T18:19:15;5.50;;;4.10;;
77123;SDS011;66079;47.646;19.130;2023-06-01T18:22:18;7.53;;;4.15;;
77123;SDS011;66079;47.646;19.130;2023-06-01T18:25:20;9.10;;;4.30;;
77123;SDS011;66079;47.646;19.130;2023-06-01T18:28:23;7.30;;;4.30;;
77123;SDS011;66079;47.646;19.130;2023-06-01T18:31:26;6.93;;;3.83;;
77123;SDS011;66079;47.646;19.130;2023-06-01T18:34:29;5.63;;;3.97;;
77123;SDS011;66079;47.646;19.130;2023-06-01T18:37:32;7.60;;;4.60;;
77123;SDS011;66079;47.646;19.130;2023-06-01T18:40:35;6.28;;;4.55;;
77123;SDS011;66079;47.646;19.130;2023-06-01T18:43:37;6.70;;;4.50;;
77123;SDS011;66079;47.646;19.130;2023-06-01T18:46:40;7.10;;;3.85;;
77123;SDS011;66079;47.646;19.130;2023-06-01T18:49:42;8.73;;;4.30;;
77123;SDS011;66079;47.646;19.130;2023-06-01T18:52:45;9.32;;;4.20;;
77123;SDS011;66079;47.646;19.130;2023-06-01T18:55:48;5.60;;;4.07;;